Time;durP1;ratioP1;P1;durP2;ratioP2;P2;SDS_P1;SDS_P2;PMS_P1;PMS_P2;Temp;Humidity;BMP_temperature;BMP_pressure;BME280_temperature;BME280_humidity;BME280_pressure;Samples;Min_cycle;Max_cycle;Signal;HPM_P1;HPM_P2
2022/10/04 00:01:29;;;;;;;6.30;3.00;;;;;;;8.24;nan;101309.09;4943417;28;20031;-69
2022/10/04 00:04:07;;;;;;;3.90;2.55;;;;;;;8.17;nan;101309.69;4948448;28;20225;-69
2022/10/04 00:06:34;;;;;;;4.53;2.65;;;;;;;8.08;nan;101301.56;4930117;29;20039;-69
2022/10/04 00:09:10;;;;;;;6.22;2.97;;;;;;;8.05;nan;101296.50;4932874;28;20070;-69
2022/10/04 00:11:36;;;;;;;6.97;2.85;;;;;;;8.03;nan;101295.81;4930004;28;20453;-69
2022/10/04 00:14:27;;;;;;;4.40;2.60;;;;;;;8.00;nan;101292.53;4932268;28;20036;-69
2022/10/04 00:16:53;;;;;;;4.28;2.53;;;;;;;7.96;nan;101296.34;4917319;29;20389;-69
2022/10/04 00:19:18;;;;;;;5.93;2.90;;;;;;;7.87;nan;101296.09;4938295;28;20068;-69
2022/10/04 00:21:53;;;;;;;3.57;2.37;;;;;;;7.79;nan;101300.25;4920268;28;20083;-68
2022/10/04 00:24:27;;;;;;;3.55;2.15;;;;;;;7.72;nan;101302.50;4923861;28;20044;-68
2022/10/04 00:26:52;;;;;;;3.38;2.13;;;;;;;7.65;nan;101306.53;4940152;28;20059;-68
2022/10/04 00:29:36;;;;;;;3.20;2.20;;;;;;;7.58;nan;101305.31;4924598;29;20041;-68
2022/10/04 00:32:10;;;;;;;4.93;2.40;;;;;;;7.54;nan;101304.72;4940295;28;20291;-71
2022/10/04 00:34:46;;;;;;;4.97;2.70;;;;;;;7.51;nan;101301.47;4946282;29;20046;-68
2022/10/04 00:37:17;;;;;;;3.88;2.45;;;;;;;7.45;nan;101305.41;4943232;28;20405;-68
2022/10/04 00:39:44;;;;;;;3.05;1.98;;;;;;;7.39;nan;101304.06;4935458;28;20405;-69
2022/10/04 00:42:36;;;;;;;2.97;2.20;;;;;;;7.34;nan;101305.31;4913019;29;20051;-69
2022/10/04 00:45:11;;;;;;;3.15;2.10;;;;;;;7.27;nan;101306.72;4938061;28;20038;-68
2022/10/04 00:47:45;;;;;;;3.47;2.22;;;;;;;7.24;nan;101318.31;4940130;28;20468;-68
2022/10/04 00:50:25;;;;;;;3.90;2.60;;;;;;;7.33;nan;101309.75;4922629;28;20482;-69
2022/10/04 00:52:57;;;;;;;4.80;2.45;;;;;;;7.28;nan;101316.31;4924550;29;20041;-68
2022/10/04 00:55:33;;;;;;;5.15;3.25;;;;;;;7.27;nan;101304.97;4931982;28;20037;-68
2022/10/04 00:58:01;;;;;;;6.00;2.83;;;;;;;7.23;nan;101299.06;4913741;29;20047;-68
2022/10/04 01:00:32;;;;;;;5.60;2.72;;;;;;;7.23;nan;101292.97;4937589;29;20134;-68
2022/10/04 01:03:01;;;;;;;4.35;2.60;;;;;;;7.20;nan;101277.41;4948570;28;20042;-68
2022/10/04 01:05:38;;;;;;;3.95;2.70;;;;;;;7.18;nan;101289.84;4920850;29;20036;-68
2022/10/04 01:08:12;;;;;;;3.65;2.10;;;;;;;7.15;nan;101290.03;4930776;28;20046;-68
2022/10/04 01:10:44;;;;;;;3.28;2.20;;;;;;;7.08;nan;101291.44;4933629;29;20296;-68
2022/10/04 01:13:18;;;;;;;3.30;2.10;;;;;;;7.02;nan;101282.19;4936774;28;20039;-68
2022/10/04 01:16:02;;;;;;;3.03;2.10;;;;;;;6.96;nan;101272.13;4944942;28;20039;-68
2022/10/04 01:18:31;;;;;;;3.60;2.08;;;;;;;6.91;nan;101272.47;4931373;28;20050;-69
2022/10/04 01:21:22;;;;;;;3.40;2.00;;;;;;;6.86;nan;101271.09;4920110;28;20139;-69
2022/10/04 01:23:52;;;;;;;3.08;1.83;;;;;;;6.83;nan;101280.03;4923370;28;20404;-69
2022/10/04 01:26:30;;;;;;;3.28;1.92;;;;;;;6.81;nan;101269.63;4920155;29;20040;-69
2022/10/04 01:28:59;;;;;;;4.45;2.28;;;;;;;6.78;nan;101269.84;4917076;29;20043;-69
2022/10/04 01:31:26;;;;;;;3.95;2.25;;;;;;;6.81;nan;101268.78;4927474;29;20090;-69
2022/10/04 01:33:53;;;;;;;4.10;2.20;;;;;;;6.80;nan;101264.50;4919576;29;20164;-69
2022/10/04 01:36:19;;;;;;;4.75;2.65;;;;;;;6.85;nan;101267.63;4939987;28;20058;-69
2022/10/04 01:38:44;;;;;;;4.35;2.67;;;;;;;6.89;nan;101265.63;4930922;28;20036;-69
2022/10/04 01:41:13;;;;;;;5.18;3.05;;;;;;;6.91;nan;101267.22;4918647;29;20123;-69
2022/10/04 01:43:42;;;;;;;4.75;3.20;;;;;;;6.98;nan;101257.06;4918073;29;20059;-68
2022/10/04 01:46:24;;;;;;;7.03;3.42;;;;;;;7.10;nan;101253.53;4922212;28;20449;-69
2022/10/04 01:48:53;;;;;;;6.22;3.50;;;;;;;7.18;nan;101248.59;4940133;28;20089;-68
2022/10/04 01:51:24;;;;;;;5.65;3.50;;;;;;;7.23;nan;101243.81;4937735;28;20193;-68
2022/10/04 01:53:57;;;;;;;5.10;3.20;;;;;;;7.26;nan;101245.38;4921996;29;20050;-68
2022/10/04 01:56:28;;;;;;;4.18;3.10;;;;;;;7.37;nan;101237.56;4922078;28;20411;-68
2022/10/04 01:59:06;;;;;;;4.53;2.90;;;;;;;7.39;nan;101230.38;4925061;28;20441;-69
2022/10/04 02:01:31;;;;;;;;;;;;;;;7.39;nan;101224.28;4921464;29;20035;-69
2022/10/04 02:04:04;;;;;;;4.25;3.00;;;;;;;7.36;nan;101220.06;4934464;28;19925;-69
2022/10/04 02:06:36;;;;;;;;;;;;;;;7.32;nan;101226.53;4928479;28;20047;-69
2022/10/04 02:09:09;;;;;;;7.38;3.33;;;;;;;7.30;nan;101220.53;4920348;29;19926;-69
2022/10/04 02:11:36;;;;;;;4.28;2.88;;;;;;;7.31;nan;101224.84;4920728;28;20036;-69
2022/10/04 02:14:04;;;;;;;5.57;3.30;;;;;;;7.38;nan;101233.97;4926743;29;20055;-69
2022/10/04 02:16:35;;;;;;;5.72;3.60;;;;;;;7.44;nan;101227.41;4926251;29;20094;-69
2022/10/04 02:19:02;;;;;;;7.18;4.30;;;;;;;7.46;nan;101215.00;4926031;28;20118;-69
2022/10/04 02:21:28;;;;;;;5.70;3.72;;;;;;;7.45;nan;101208.88;4918432;29;20533;-69
2022/10/04 02:23:54;;;;;;;7.13;3.47;;;;;;;7.43;nan;101196.78;4919012;29;20462;-69
2022/10/04 02:26:20;;;;;;;4.93;3.00;;;;;;;7.41;nan;101186.38;4922776;28;20413;-69
2022/10/04 02:28:45;;;;;;;4.43;3.35;;;;;;;7.36;nan;101192.94;4918661;29;20040;-70
2022/10/04 02:33:57;;;;;;;7.40;3.90;;;;;;;7.44;nan;101194.03;4930164;29;20041;-69
2022/10/04 02:36:26;;;;;;;7.45;3.83;;;;;;;7.51;nan;101180.41;4921435;28;20052;-69
2022/10/04 02:39:02;;;;;;;5.97;3.88;;;;;;;7.57;nan;101179.97;4918335;29;20165;-69
2022/10/04 02:41:37;;;;;;;6.25;3.40;;;;;;;7.60;nan;101179.72;4915818;29;20036;-69
2022/10/04 02:44:20;;;;;;;5.97;3.60;;;;;;;7.57;nan;101180.78;4918141;28;20370;-69
2022/10/04 02:46:56;;;;;;;6.70;3.70;;;;;;;7.52;nan;101187.38;4924778;28;20044;-69
2022/10/04 02:49:32;;;;;;;6.53;3.47;;;;;;;7.48;nan;101191.16;4929684;28;20043;-69
2022/10/04 02:52:10;;;;;;;7.22;3.40;;;;;;;7.47;nan;101184.25;4922045;28;20087;-69
2022/10/04 02:54:47;;;;;;;6.60;3.30;;;;;;;7.43;nan;101187.09;4926399;28;20635;-69
2022/10/04 02:57:20;;;;;;;6.35;3.90;;;;;;;7.45;nan;101192.25;4928797;28;20055;-69
2022/10/04 02:59:45;;;;;;;6.72;4.00;;;;;;;7.48;nan;101185.91;4934097;28;20042;-69
2022/10/04 03:02:21;;;;;;;7.63;3.78;;;;;;;7.55;nan;101193.22;4920997;28;20040;-69
2022/10/04 03:04:49;;;;;;;8.75;4.00;;;;;;;7.60;nan;101188.47;4939069;28;20036;-69
2022/10/04 03:07:15;;;;;;;6.35;3.70;;;;;;;7.62;nan;101190.97;4923840;28;20048;-68
2022/10/04 03:09:41;;;;;;;6.88;3.78;;;;;;;7.65;nan;101186.31;4917622;29;20108;-68
2022/10/04 03:12:10;;;;;;;7.47;3.80;;;;;;;7.64;nan;101181.16;4927590;28;20118;-69
2022/10/04 03:14:37;;;;;;;5.95;3.35;;;;;;;7.63;nan;101176.88;4928982;28;20048;-68
2022/10/04 03:17:06;;;;;;;4.68;3.35;;;;;;;7.63;nan;101177.69;4926334;29;20067;-68
2022/10/04 03:19:33;;;;;;;4.35;3.30;;;;;;;7.64;nan;101173.28;4928127;29;20032;-69
2022/10/04 03:22:02;;;;;;;6.18;3.35;;;;;;;7.61;nan;101163.81;4925807;28;20099;-68
2022/10/04 03:24:30;;;;;;;6.68;3.40;;;;;;;7.61;nan;101158.56;4926816;28;20039;-69
2022/10/04 03:26:58;;;;;;;5.32;3.30;;;;;;;7.61;nan;101160.34;4924811;28;20130;-68
2022/10/04 03:29:27;;;;;;;4.85;3.00;;;;;;;7.58;nan;101150.03;4925129;29;20531;-68
2022/10/04 03:31:57;;;;;;;4.50;2.85;;;;;;;7.56;nan;101160.69;4922447;28;20563;-68
2022/10/04 03:34:27;;;;;;;6.40;2.90;;;;;;;7.56;nan;101162.50;4926538;28;20039;-68
2022/10/04 03:36:58;;;;;;;5.93;3.00;;;;;;;7.53;nan;101160.09;4930173;29;20031;-68
2022/10/04 03:39:32;;;;;;;4.00;2.87;;;;;;;7.49;nan;101159.50;4927974;28;20036;-68
2022/10/04 03:42:01;;;;;;;4.20;2.60;;;;;;;7.43;nan;101162.56;4928050;28;20818;-69
2022/10/04 03:44:27;;;;;;;5.22;3.17;;;;;;;7.38;nan;101162.91;4922366;28;20048;-69
2022/10/04 03:46:53;;;;;;;5.63;3.30;;;;;;;7.37;nan;101169.16;4920450;29;20517;-68
2022/10/04 03:49:32;;;;;;;5.72;2.97;;;;;;;7.41;nan;101169.75;4912655;29;20051;-68
2022/10/04 03:51:59;;;;;;;4.38;3.13;;;;;;;7.53;nan;101174.09;4916642;29;21173;-68
2022/10/04 03:54:28;;;;;;;4.65;3.17;;;;;;;7.54;nan;101182.84;4924227;28;20032;-68
2022/10/04 03:56:55;;;;;;;5.55;3.50;;;;;;;7.52;nan;101175.03;4919062;29;20051;-68
2022/10/04 03:59:24;;;;;;;5.07;3.13;;;;;;;7.54;nan;101173.13;4919532;29;20091;-68
2022/10/04 04:02:02;;;;;;;7.55;3.50;;;;;;;7.59;nan;101178.88;4920737;28;20152;-68
2022/10/04 04:04:40;;;;;;;6.47;3.58;;;;;;;7.60;nan;101172.69;4933464;28;20043;-68
2022/10/04 04:07:11;;;;;;;6.88;3.40;;;;;;;7.60;nan;101172.69;4926750;29;20036;-69
2022/10/04 04:09:43;;;;;;;5.15;3.40;;;;;;;7.62;nan;101172.53;4919774;28;20428;-69
2022/10/04 04:12:23;;;;;;;4.97;3.25;;;;;;;7.58;nan;101176.34;4916790;28;20051;-69
2022/10/04 04:14:50;;;;;;;4.35;2.92;;;;;;;7.59;nan;101178.06;4919972;28;20239;-68
2022/10/04 04:17:24;;;;;;;7.35;4.00;;;;;;;7.60;nan;101175.31;4916129;29;20103;-68
2022/10/04 04:19:51;;;;;;;6.90;4.07;;;;;;;7.63;nan;101166.34;4922499;28;20039;-68
2022/10/04 04:22:18;;;;;;;4.43;2.80;;;;;;;7.66;nan;101174.81;4921119;28;20040;-68
2022/10/04 04:24:44;;;;;;;6.15;3.03;;;;;;;7.65;nan;101183.69;4920391;29;20054;-68
2022/10/04 04:27:12;;;;;;;3.50;2.55;;;;;;;7.67;nan;101175.66;4923558;28;20060;-68
2022/10/04 04:29:50;;;;;;;5.22;3.03;;;;;;;7.71;nan;101186.81;4922240;28;20099;-68
2022/10/04 04:32:24;;;;;;;6.60;3.15;;;;;;;7.74;nan;101192.66;4924811;28;20119;-68
2022/10/04 04:34:53;;;;;;;5.22;3.17;;;;;;;7.78;nan;101190.66;4930918;29;20115;-68
2022/10/04 04:37:19;;;;;;;4.28;2.85;;;;;;;7.79;nan;101187.88;4924536;29;20130;-69
2022/10/04 04:39:50;;;;;;;6.60;3.20;;;;;;;7.82;nan;101181.56;4923631;28;20501;-68
2022/10/04 04:42:20;;;;;;;5.90;2.78;;;;;;;7.87;nan;101184.69;4924469;28;20787;-68
2022/10/04 04:45:06;;;;;;;4.18;2.83;;;;;;;7.86;nan;101188.25;4917783;28;20111;-68
2022/10/04 04:47:43;;;;;;;3.88;2.30;;;;;;;7.85;nan;101183.97;4924537;28;20557;-68
2022/10/04 04:50:18;;;;;;;3.75;2.40;;;;;;;7.82;nan;101185.03;4929063;28;20036;-69
2022/10/04 04:52:49;;;;;;;4.40;2.13;;;;;;;7.81;nan;101185.13;4926315;28;20039;-68
2022/10/04 04:55:16;;;;;;;3.13;2.08;;;;;;;7.79;nan;101179.16;4923532;28;20509;-68
2022/10/04 04:57:43;;;;;;;3.63;2.15;;;;;;;7.77;nan;101188.97;4931271;28;20043;-68
2022/10/04 05:00:16;;;;;;;3.40;2.22;;;;;;;7.75;nan;101177.72;4934892;28;20051;-69
2022/10/04 05:02:50;;;;;;;2.50;1.85;;;;;;;7.71;nan;101169.22;4930748;28;20035;-68
2022/10/04 05:05:27;;;;;;;2.67;1.98;;;;;;;7.68;nan;101171.25;4932446;28;20375;-68
2022/10/04 05:08:23;;;;;;;3.55;2.20;;;;;;;7.61;nan;101170.88;4926337;28;20040;-68
2022/10/04 05:11:10;;;;;;;3.10;2.20;;;;;;;7.53;nan;101162.72;4913449;28;20038;-68
2022/10/04 05:13:46;;;;;;;4.40;2.00;;;;;;;7.43;nan;101168.66;4915345;29;20619;-68
2022/10/04 05:16:18;;;;;;;2.70;2.05;;;;;;;7.34;nan;101156.22;4925155;28;20099;-68
2022/10/04 05:18:44;;;;;;;3.42;2.53;;;;;;;7.40;nan;101168.06;4917495;29;20415;-68
2022/10/04 05:21:19;;;;;;;2.70;2.03;;;;;;;7.30;nan;101167.94;4927146;28;20154;-68
2022/10/04 05:23:44;;;;;;;;;;;;;;;7.21;nan;101171.25;4921200;28;20039;-68
2022/10/04 05:26:11;;;;;;;;;;;;;;;7.13;nan;101171.00;4917560;28;19946;-68
2022/10/04 05:28:37;;;;;;;2.55;1.70;;;;;;;7.07;nan;101172.25;4922080;28;19919;-68
2022/10/04 05:31:31;;;;;;;2.70;1.83;;;;;;;7.01;nan;101170.09;4921760;28;20043;-68
2022/10/04 05:33:57;;;;;;;1.80;1.40;;;;;;;6.96;nan;101165.19;4927667;28;20348;-68
2022/10/04 05:36:38;;;;;;;2.63;2.03;;;;;;;6.92;nan;101178.66;4920091;28;20043;-68
2022/10/04 05:39:13;;;;;;;3.97;1.90;;;;;;;6.90;nan;101178.75;4919448;28;20485;-69
2022/10/04 05:41:55;;;;;;;3.20;2.22;;;;;;;6.91;nan;101179.59;4924201;29;20044;-68
2022/10/04 05:44:43;;;;;;;4.50;2.20;;;;;;;6.92;nan;101173.41;4921938;28;20437;-69
2022/10/04 05:47:13;;;;;;;2.85;2.00;;;;;;;6.95;nan;101173.16;4917687;28;20513;-69
2022/10/04 05:49:45;;;;;;;3.05;2.30;;;;;;;7.00;nan;101163.97;4922722;29;20405;-68
2022/10/04 05:52:23;;;;;;;3.28;2.30;;;;;;;7.02;nan;101169.97;4919556;28;20036;-68
2022/10/04 05:55:11;;;;;;;4.30;2.63;;;;;;;7.06;nan;101169.75;4918752;28;20454;-68
2022/10/04 05:58:00;;;;;;;3.33;2.30;;;;;;;7.09;nan;101165.09;4922442;29;20102;-68
2022/10/04 06:00:44;;;;;;;4.35;3.05;;;;;;;7.11;nan;101165.00;4912630;28;20741;-68
2022/10/04 06:03:22;;;;;;;4.43;2.97;;;;;;;7.13;nan;101171.81;4922823;28;20055;-68
2022/10/04 06:06:15;;;;;;;5.07;3.20;;;;;;;7.19;nan;101167.88;4928507;28;20312;-68
2022/10/04 06:08:58;;;;;;;5.05;3.80;;;;;;;7.27;nan;101170.78;4919493;28;20047;-68
2022/10/04 06:11:46;;;;;;;4.45;3.13;;;;;;;7.35;nan;101173.69;4915997;29;20405;-68
2022/10/04 06:14:38;;;;;;;5.47;3.80;;;;;;;7.36;nan;101171.88;4933290;28;20047;-69
2022/10/04 06:17:24;;;;;;;6.20;3.80;;;;;;;7.41;nan;101186.38;4922945;29;20071;-68
2022/10/04 06:19:59;;;;;;;7.25;4.45;;;;;;;7.48;nan;101188.53;4923413;28;20094;-68
2022/10/04 06:22:27;;;;;;;6.88;4.50;;;;;;;7.48;nan;101196.44;4915363;28;20040;-68
2022/10/04 06:25:02;;;;;;;6.90;4.15;;;;;;;7.51;nan;101198.81;4919918;28;20032;-68
2022/10/04 06:27:52;;;;;;;5.82;4.18;;;;;;;7.55;nan;101195.84;4920767;29;20036;-68
2022/10/04 06:30:19;;;;;;;5.85;4.20;;;;;;;7.57;nan;101193.94;4917742;28;20202;-68
2022/10/04 06:32:51;;;;;;;4.70;3.42;;;;;;;7.66;nan;101195.88;4922088;29;20031;-68
2022/10/04 06:35:29;;;;;;;4.28;3.05;;;;;;;7.73;nan;101191.00;4922651;28;20047;-68
2022/10/04 06:38:30;;;;;;;4.57;3.10;;;;;;;7.79;nan;101193.16;4922389;28;20096;-68
2022/10/04 06:41:11;;;;;;;6.18;3.25;;;;;;;7.81;nan;101196.50;4918468;28;20111;-68
2022/10/04 06:43:56;;;;;;;5.10;3.58;;;;;;;7.85;nan;101205.84;4915338;28;20068;-68
2022/10/04 06:46:38;;;;;;;5.93;3.50;;;;;;;7.94;nan;101209.59;4926124;28;20088;-68
2022/10/04 06:49:13;;;;;;;3.97;3.10;;;;;;;8.03;nan;101203.63;4932863;28;20118;-68
2022/10/04 06:52:04;;;;;;;3.38;2.60;;;;;;;8.12;nan;101202.03;4927642;28;20039;-68
2022/10/04 06:54:41;;;;;;;3.00;2.40;;;;;;;8.19;nan;101192.69;4917420;29;20584;-69
2022/10/04 06:57:30;;;;;;;5.13;3.08;;;;;;;8.24;nan;101195.81;4918453;29;20238;-69
2022/10/04 07:00:17;;;;;;;5.65;4.05;;;;;;;8.24;nan;101190.53;4930892;29;20032;-68
2022/10/04 07:02:48;;;;;;;7.45;4.80;;;;;;;8.24;nan;101197.63;4926732;29;20036;-68
2022/10/04 07:05:35;;;;;;;6.95;4.30;;;;;;;8.27;nan;101208.78;4918852;29;20036;-68
2022/10/04 07:08:09;;;;;;;6.45;4.55;;;;;;;8.28;nan;101223.59;4926766;28;20035;-69
2022/10/04 07:10:43;;;;;;;7.85;5.20;;;;;;;8.20;nan;101210.22;4916285;29;20583;-68
2022/10/04 07:13:30;;;;;;;6.85;4.90;;;;;;;8.22;nan;101207.44;4923886;29;20070;-68
2022/10/04 07:16:03;;;;;;;5.20;4.20;;;;;;;8.20;nan;101219.88;4925313;29;20032;-68
2022/10/04 07:18:39;;;;;;;6.03;4.65;;;;;;;8.12;nan;101223.13;4921703;28;20089;-69
2022/10/04 07:21:08;;;;;;;7.75;4.53;;;;;;;8.08;nan;101219.06;4919990;29;21493;-68
2022/10/04 07:23:55;;;;;;;4.53;3.50;;;;;;;8.16;nan;101221.94;4920154;28;20131;-68
2022/10/04 07:26:31;;;;;;;7.60;4.53;;;;;;;8.20;nan;101230.41;4924962;29;20043;-69
2022/10/04 07:29:20;;;;;;;6.15;4.57;;;;;;;8.24;nan;101234.50;4922453;28;20047;-71
2022/10/04 07:32:10;;;;;;;5.32;4.28;;;;;;;8.35;nan;101229.25;4918231;29;20501;-71
2022/10/04 07:41:34;;;;;;;4.25;3.53;;;;;;;8.21;92.44;101242.66;5078696;27;20440;-70
2022/10/04 07:44:14;;;;;;;3.80;3.05;;;;;;;8.51;94.68;101247.38;5062040;28;20408;-70
2022/10/04 07:46:40;;;;;;;;;;;;;;;8.67;94.74;101245.16;5059523;28;20053;-68
2022/10/04 07:49:15;;;;;;;7.17;4.30;;;;;;;8.85;95.04;101234.97;5042922;28;20018;-70
2022/10/04 07:51:50;;;;;;;5.53;3.97;;;;;;;9.03;95.00;101227.34;5053106;28;20397;-68
2022/10/04 07:54:35;;;;;;;5.85;3.90;;;;;;;9.23;94.25;101227.56;5045530;28;20187;-69
2022/10/04 07:57:09;;;;;;;4.65;3.50;;;;;;;9.59;94.28;101222.84;5060069;28;20489;-68
2022/10/04 07:59:51;;;;;;;6.18;4.00;;;;;;;9.78;92.93;101225.59;5047935;28;20044;-68
2022/10/04 08:02:30;;;;;;;6.20;4.32;;;;;;;9.90;90.41;101224.56;5038844;28;20045;-69
2022/10/04 08:05:18;;;;;;;7.65;4.53;;;;;;;10.05;89.00;101224.22;5043623;28;20037;-69
2022/10/04 08:08:01;;;;;;;8.38;4.50;;;;;;;10.24;88.26;101220.84;5045961;28;20075;-69
2022/10/04 08:10:55;;;;;;;7.10;4.90;;;;;;;10.65;88.32;101227.00;5049993;28;20067;-69
2022/10/04 08:13:44;;;;;;;6.55;5.03;;;;;;;11.00;87.71;101224.69;5050976;28;20046;-69
2022/10/04 08:16:17;;;;;;;6.00;4.15;;;;;;;11.56;87.94;101227.63;5044357;28;20029;-69
2022/10/04 08:19:17;;;;;;;5.57;3.85;;;;;;;12.02;86.36;101232.19;5048962;28;20025;-69
2022/10/04 08:21:58;;;;;;;;;;;;;;;12.42;85.35;101214.28;5048872;28;20100;-69
2022/10/04 08:24:26;;;;;;;;;;;;;;;12.97;86.27;101222.25;5047812;28;19917;-69
2022/10/04 08:27:25;;;;;;;4.90;3.40;;;;;;;13.35;83.76;101225.63;5043819;28;19920;-69
2022/10/04 08:30:03;;;;;;;6.28;3.75;;;;;;;13.62;80.80;101221.19;5049493;28;20689;-69
2022/10/04 08:32:31;;;;;;;;;;;;;;;13.91;81.64;101224.38;5055086;28;20037;-69
2022/10/04 08:35:02;;;;;;;5.85;2.95;;;;;;;14.32;80.88;101229.09;5041776;28;19917;-69
2022/10/04 08:37:46;;;;;;;4.10;2.97;;;;;;;14.91;79.39;101224.66;5044285;28;20393;-69
2022/10/04 08:40:34;;;;;;;4.68;3.17;;;;;;;15.50;77.87;101224.56;5040551;28;20428;-70
2022/10/04 08:43:08;;;;;;;4.55;3.10;;;;;;;16.13;74.52;101218.50;5048344;28;20118;-70
2022/10/04 08:46:12;;;;;;;3.80;3.00;;;;;;;16.86;73.81;101216.56;5050118;28;20498;-70
2022/10/04 08:49:10;;;;;;;4.82;2.70;;;;;;;17.68;73.76;101207.06;5034761;28;20098;-69
2022/10/04 08:51:57;;;;;;;3.72;2.70;;;;;;;18.19;71.36;101201.88;5044200;28;20505;-69
2022/10/04 08:54:52;;;;;;;4.32;2.88;;;;;;;18.60;69.20;101199.50;5034389;28;20607;-69
2022/10/04 08:58:04;;;;;;;6.78;4.53;;;;;;;18.94;67.23;101205.28;5034445;28;20358;-69
2022/10/04 09:00:56;;;;;;;4.13;2.90;;;;;;;19.43;66.61;101210.69;5034670;28;20193;-70
2022/10/04 09:03:41;;;;;;;5.35;3.25;;;;;;;19.96;65.27;101212.16;5036471;28;20063;-69
2022/10/04 09:06:18;;;;;;;5.38;3.45;;;;;;;20.04;63.17;101210.13;5029965;28;20029;-70
2022/10/04 09:09:12;;;;;;;5.22;3.65;;;;;;;20.01;62.04;101215.06;5034267;28;20036;-69
2022/10/04 09:12:02;;;;;;;7.68;4.15;;;;;;;19.99;59.03;101212.56;5029367;28;20037;-69
2022/10/04 09:14:39;;;;;;;6.60;4.07;;;;;;;20.01;56.13;101217.75;5034070;28;20525;-69
2022/10/04 09:17:14;;;;;;;7.85;4.57;;;;;;;20.02;57.61;101206.81;5038727;28;20041;-69
2022/10/04 09:20:21;;;;;;;5.70;3.03;;;;;;;20.39;58.64;101206.59;5028198;28;20037;-69
2022/10/04 09:23:16;;;;;;;7.13;3.40;;;;;;;21.05;56.30;101204.13;4959073;28;20058;-69
2022/10/04 09:26:38;;;;;;;6.15;3.50;;;;;;;21.38;54.32;101203.31;5034239;28;20564;-69
2022/10/04 09:29:15;;;;;;;5.40;3.30;;;;;;;21.38;54.03;101200.63;5032234;28;20091;-69
2022/10/04 09:32:06;;;;;;;4.22;3.05;;;;;;;21.19;54.32;101211.19;5026376;28;20087;-69
2022/10/04 09:34:59;;;;;;;5.60;2.95;;;;;;;21.48;54.18;101206.47;5026459;28;20037;-70
2022/10/04 09:37:24;;;;;;;7.28;3.90;;;;;;;22.45;49.21;101212.09;5028594;28;20061;-70
2022/10/04 09:40:27;;;;;;;4.00;2.90;;;;;;;23.08;50.26;101209.50;5045013;28;20069;-70
2022/10/04 09:43:22;;;;;;;4.90;3.25;;;;;;;23.50;48.98;101211.66;5035631;28;20053;-69
2022/10/04 09:46:16;;;;;;;6.68;3.25;;;;;;;24.01;48.00;101212.47;5033382;28;20037;-70
2022/10/04 09:49:03;;;;;;;5.18;3.00;;;;;;;24.56;45.85;101216.00;5031472;28;20029;-70
2022/10/04 09:51:57;;;;;;;6.47;3.97;;;;;;;24.34;43.71;101215.63;5036431;28;20032;-69
2022/10/04 09:54:43;;;;;;;5.45;3.05;;;;;;;24.30;44.72;101214.41;5045036;28;20505;-70
2022/10/04 09:57:17;;;;;;;5.18;3.03;;;;;;;23.94;45.45;101216.06;5039208;28;20053;-69
2022/10/04 10:00:10;;;;;;;6.00;3.00;;;;;;;23.24;45.82;101216.25;5034767;28;20033;-69
2022/10/04 10:03:02;;;;;;;5.43;2.92;;;;;;;22.16;47.62;101222.31;5037467;28;20053;-67
2022/10/04 10:06:06;;;;;;;7.45;3.67;;;;;;;21.20;48.72;101212.00;5016956;28;20033;-71
2022/10/04 10:08:55;;;;;;;5.00;3.03;;;;;;;20.80;49.42;101056.03;5031657;28;20033;-70
2022/10/04 10:14:39;;;;;;;4.88;3.40;;;;;;;;;;5031923;28;20053;-70
2022/10/04 10:17:26;;;;;;;7.03;3.20;;;;;;;;;;5042487;28;20044;-70
2022/10/04 10:20:15;;;;;;;;;;;;;;;21.40;nan;101056.84;5028074;28;20064;-69
2022/10/04 10:23:18;;;;;;;5.55;3.58;;;;;;;22.66;nan;101205.56;5030831;28;20002;-69
2022/10/04 10:26:23;;;;;;;5.75;3.92;;;;;;;23.69;nan;101209.84;5032101;28;20106;-69
2022/10/04 10:29:18;;;;;;;4.47;2.50;;;;;;;23.80;nan;101206.44;5038837;28;20045;-69
2022/10/04 10:32:24;;;;;;;5.10;2.50;;;;;;;23.98;nan;101212.91;5032009;28;20029;-69
2022/10/04 10:34:58;;;;;;;4.47;3.08;;;;;;;24.34;nan;101215.63;5043956;28;20037;-69
2022/10/04 10:37:45;;;;;;;6.38;3.25;;;;;;;24.72;nan;101214.56;5034554;28;20041;-69
2022/10/04 10:40:39;;;;;;;5.63;2.58;;;;;;;25.52;nan;101207.94;5031569;28;20025;-70
2022/10/04 10:43:26;;;;;;;5.28;3.40;;;;;;;25.77;nan;101201.47;5029444;28;20498;-70
2022/10/04 10:46:19;;;;;;;5.97;3.70;;;;;;;25.70;nan;101195.38;5029375;28;20049;-69
2022/10/04 10:48:56;;;;;;;6.30;3.45;;;;;;;25.09;nan;101190.06;5033189;28;20033;-70
2022/10/04 10:51:24;;;;;;;5.20;3.30;;;;;;;24.37;nan;101188.13;5034262;28;20041;-69
2022/10/04 10:54:17;;;;;;;4.28;2.70;;;;;;;24.02;nan;101187.09;5029254;28;20132;-69
2022/10/04 10:57:14;;;;;;;5.93;3.67;;;;;;;24.41;nan;101195.78;5016898;28;20661;-70
2022/10/04 10:59:48;;;;;;;;;;;;;;;24.19;nan;101184.63;5028010;28;20044;-69
2022/10/04 11:02:14;;;;;;;5.28;3.50;;;;;;;24.22;nan;101176.91;5024154;28;20382;-70
2022/10/04 11:04:48;;;;;;;5.20;3.03;;;;;;;23.75;nan;101184.69;5026647;28;20067;-69
2022/10/04 11:07:15;;;;;;;6.35;3.63;;;;;;;23.64;nan;101179.97;5030189;28;20299;-69
2022/10/04 11:10:07;;;;;;;4.88;3.20;;;;;;;23.73;nan;101179.50;5040820;28;20032;-69
2022/10/04 11:12:56;;;;;;;6.40;3.28;;;;;;;24.20;nan;101172.78;5022898;28;20033;-69
2022/10/04 11:15:40;;;;;;;;;;;;;;;24.86;nan;101176.47;5020532;28;20538;-69
2022/10/04 11:18:30;;;;;;;6.07;3.00;;;;;;;25.04;nan;101175.59;5024668;28;19932;-69
2022/10/04 11:21:16;;;;;;;8.13;3.22;;;;;;;25.95;nan;101173.44;5036489;28;21988;-70
2022/10/04 11:24:08;;;;;;;6.43;3.38;;;;;;;26.94;nan;101170.50;5030148;28;20044;-70
2022/10/04 11:26:36;;;;;;;5.07;2.88;;;;;;;26.70;nan;101167.09;5036899;28;20033;-70
2022/10/04 11:29:29;;;;;;;6.40;3.23;;;;;;;26.04;nan;101155.75;5035522;28;20045;-70
2022/10/04 11:32:01;;;;;;;5.55;3.10;;;;;;;25.47;nan;101160.97;5035839;28;20564;-70
2022/10/04 11:34:56;;;;;;;7.47;4.53;;;;;;;24.69;nan;101150.09;5042968;28;20299;-70
2022/10/04 11:37:34;;;;;;;5.95;3.10;;;;;;;24.06;nan;101158.59;5042047;28;20037;-70
2022/10/04 11:40:27;;;;;;;4.90;2.70;;;;;;;23.41;nan;101156.34;5028183;28;20040;-70
2022/10/04 11:43:30;;;;;;;3.67;2.78;;;;;;;23.32;nan;101156.59;5032843;28;20671;-70
2022/10/04 11:46:23;;;;;;;5.78;3.05;;;;;;;23.13;nan;101154.06;5024995;28;20133;-70
2022/10/04 11:49:07;;;;;;;5.07;2.70;;;;;;;22.66;nan;101155.16;5027256;28;20029;-70
2022/10/04 11:52:03;;;;;;;5.65;2.83;;;;;;;22.44;nan;101153.84;5037175;28;20030;-70
2022/10/04 11:55:05;;;;;;;6.55;3.72;;;;;;;22.21;nan;101155.19;5032738;28;20426;-70
2022/10/04 11:57:52;;;;;;;5.22;2.88;;;;;;;21.86;nan;101160.06;5039673;28;20033;-70
2022/10/04 12:00:19;;;;;;;5.18;2.70;;;;;;;21.58;nan;101147.69;5053798;28;20079;-71
2022/10/04 12:03:08;;;;;;;4.03;2.50;;;;;;;21.43;nan;101147.09;5025727;28;20426;-70
2022/10/04 12:06:02;;;;;;;5.32;3.30;;;;;;;21.11;nan;101146.00;5030401;28;20080;-70
2022/10/04 12:08:51;;;;;;;4.88;2.60;;;;;;;20.71;nan;101140.56;5035777;28;20128;-70
2022/10/04 12:14:39;;;;;;;5.53;2.80;;;;;;;20.26;nan;101129.47;5027416;28;20555;-70
2022/10/04 12:17:23;;;;;;;4.70;2.40;;;;;;;20.06;nan;101127.53;5033614;28;20709;-70
2022/10/04 12:20:17;;;;;;;6.25;3.00;;;;;;;19.98;nan;101127.72;5030328;28;20269;-70
2022/10/04 12:22:48;;;;;;;5.93;2.58;;;;;;;19.72;nan;101121.16;5027610;28;20042;-70
2022/10/04 12:25:29;;;;;;;;;;;;;;;19.59;nan;101122.91;5040344;28;20120;-70
2022/10/04 12:28:14;;;;;;;4.90;2.55;;;;;;;19.30;nan;101112.19;5036114;28;19917;-70
2022/10/04 12:30:48;;;;;;;4.78;2.70;;;;;;;19.00;nan;101103.50;5028787;28;20314;-70
2022/10/04 12:33:38;;;;;;;3.75;2.47;;;;;;;18.98;nan;101099.34;5033499;28;20458;-69
2022/10/04 12:36:20;;;;;;;6.38;3.13;;;;;;;18.95;nan;101095.22;5033203;28;20037;-70
2022/10/04 12:38:54;;;;;;;3.75;2.10;;;;;;;18.89;nan;101095.97;5034804;28;20042;-71
2022/10/04 12:41:37;;;;;;;5.13;2.40;;;;;;;18.80;nan;101089.91;5031503;28;20038;-70
2022/10/04 12:44:53;;;;;;;5.20;2.88;;;;;;;18.72;nan;101084.66;5050378;28;20090;-70
2022/10/04 12:47:43;;;;;;;3.78;2.10;;;;;;;18.67;nan;101087.91;5037039;28;20276;-70
2022/10/04 12:50:39;;;;;;;5.40;2.40;;;;;;;18.57;nan;101070.50;5036287;28;20183;-69
2022/10/04 12:53:18;;;;;;;4.03;2.28;;;;;;;18.46;nan;101077.19;5045038;28;20324;-69
2022/10/04 12:56:04;;;;;;;4.90;2.40;;;;;;;18.52;nan;101073.75;5027399;28;20052;-69
2022/10/04 12:59:07;;;;;;;4.63;2.20;;;;;;;18.52;nan;101067.56;5038222;28;20041;-69
2022/10/04 13:01:55;;;;;;;5.28;2.83;;;;;;;18.40;nan;101065.41;5027615;28;20103;-69